Terminal Aerodrome Forecast
Issued by NWS Nashville, TN

Home | Current Version | Previous Version | Text Only | Print | Product List | Glossary On
Versions: 1 2 3 4 5 6 7 8 9 10 11 12 13 14 15 16 17 18 19 20 21 22 23 24
656
FTUS44 KOHX 310856 AAA
TAFCSV
TAF AMD
KCSV 310856Z 3109/0106 00000KT 6SM BR SCT250
      TEMPO 3109/3112 00000KT 2SM BR BKN005
     FM311300 VRB02KT 4SM HZ BR SCT005 SCT250
     FM311500 29005KT P6SM SCT015 BKN250=

USA.gov is the U.S. government's official web portal to all federal, state and local government web resources and services.